sensor_id;sensor_type;location;lat;lon;timestamp;temperature;humidity
31783;DHT22;18351;47.560;9.708;2022-07-01T00:00:31;17.80;99.90
31783;DHT22;18351;47.560;9.708;2022-07-01T00:02:57;17.80;99.90
31783;DHT22;18351;47.560;9.708;2022-07-01T00:05:22;17.80;99.90
31783;DHT22;18351;47.560;9.708;2022-07-01T00:07:48;17.70;99.90
31783;DHT22;18351;47.560;9.708;2022-07-01T00:10:14;17.70;99.90
31783;DHT22;18351;47.560;9.708;2022-07-01T00:12:40;17.60;99.90
31783;DHT22;18351;47.560;9.708;2022-07-01T00:15:06;17.60;99.90
31783;DHT22;18351;47.560;9.708;2022-07-01T00:17:32;17.60;99.90
31783;DHT22;18351;47.560;9.708;2022-07-01T00:19:58;17.50;99.90
31783;DHT22;18351;47.560;9.708;2022-07-01T00:22:24;17.50;99.90
31783;DHT22;18351;47.560;9.708;2022-07-01T00:24:49;17.50;99.90
31783;DHT22;18351;47.560;9.708;2022-07-01T00:27:15;17.50;99.90
31783;DHT22;18351;47.560;9.708;2022-07-01T00:29:41;17.50;99.90
31783;DHT22;18351;47.560;9.708;2022-07-01T00:32:07;17.50;99.90
31783;DHT22;18351;47.560;9.708;2022-07-01T00:34:32;17.50;99.90
31783;DHT22;18351;47.560;9.708;2022-07-01T00:36:58;17.30;99.90
31783;DHT22;18351;47.560;9.708;2022-07-01T00:39:25;17.40;99.90
31783;DHT22;18351;47.560;9.708;2022-07-01T00:41:50;17.40;99.90
31783;DHT22;18351;47.560;9.708;2022-07-01T00:44:17;17.40;99.90
31783;DHT22;18351;47.560;9.708;2022-07-01T00:46:43;17.50;99.90
31783;DHT22;18351;47.560;9.708;2022-07-01T00:49:09;17.50;99.90
31783;DHT22;18351;47.560;9.708;2022-07-01T00:51:35;17.50;99.90
31783;DHT22;18351;47.560;9.708;2022-07-01T00:54:01;17.50;99.90
31783;DHT22;18351;47.560;9.708;2022-07-01T00:56:26;17.50;99.90
31783;DHT22;18351;47.560;9.708;2022-07-01T00:58:52;17.50;99.90
31783;DHT22;18351;47.560;9.708;2022-07-01T01:01:18;17.50;99.90
31783;DHT22;18351;47.560;9.708;2022-07-01T01:03:45;17.60;99.90
31783;DHT22;18351;47.560;9.708;2022-07-01T01:06:11;17.50;99.90
31783;DHT22;18351;47.560;9.708;2022-07-01T01:08:37;17.40;99.90
31783;DHT22;18351;47.560;9.708;2022-07-01T01:11:03;17.40;99.90
31783;DHT22;18351;47.560;9.708;2022-07-01T01:13:29;17.30;99.90
31783;DHT22;18351;47.560;9.708;2022-07-01T01:15:55;17.30;99.90
31783;DHT22;18351;47.560;9.708;2022-07-01T01:18:20;17.20;99.90
31783;DHT22;18351;47.560;9.708;2022-07-01T01:20:46;17.10;99.90
31783;DHT22;18351;47.560;9.708;2022-07-01T01:23:12;17.10;99.90
31783;DHT22;18351;47.560;9.708;2022-07-01T01:25:37;17.20;99.90
31783;DHT22;18351;47.560;9.708;2022-07-01T01:28:03;17.10;99.90
31783;DHT22;18351;47.560;9.708;2022-07-01T01:30:29;17.10;99.90
31783;DHT22;18351;47.560;9.708;2022-07-01T01:32:55;17.10;99.90
31783;DHT22;18351;47.560;9.708;2022-07-01T01:35:21;17.10;99.90
31783;DHT22;18351;47.560;9.708;2022-07-01T01:37:47;17.10;99.90
31783;DHT22;18351;47.560;9.708;2022-07-01T01:40:14;17.00;99.90
31783;DHT22;18351;47.560;9.708;2022-07-01T01:42:40;17.10;99.90
31783;DHT22;18351;47.560;9.708;2022-07-01T01:45:06;17.10;99.90
31783;DHT22;18351;47.560;9.708;2022-07-01T01:47:32;17.10;99.90
31783;DHT22;18351;47.560;9.708;2022-07-01T01:49:58;17.00;99.90
31783;DHT22;18351;47.560;9.708;2022-07-01T01:52:24;16.90;99.90
31783;DHT22;18351;47.560;9.708;2022-07-01T01:54:49;16.80;99.90
31783;DHT22;18351;47.560;9.708;2022-07-01T01:57:15;16.70;99.90
31783;DHT22;18351;47.560;9.708;2022-07-01T01:59:40;16.60;99.90
31783;DHT22;18351;47.560;9.708;2022-07-01T02:02:06;16.50;99.90
31783;DHT22;18351;47.560;9.708;2022-07-01T02:04:32;16.50;99.90
31783;DHT22;18351;47.560;9.708;2022-07-01T02:06:57;16.30;99.90
31783;DHT22;18351;47.560;9.708;2022-07-01T02:09:23;16.30;99.90
31783;DHT22;18351;47.560;9.708;2022-07-01T02:11:49;16.30;99.90
31783;DHT22;18351;47.560;9.708;2022-07-01T02:14:14;16.20;99.90
31783;DHT22;18351;47.560;9.708;2022-07-01T02:16:40;16.20;99.90
31783;DHT22;18351;47.560;9.708;2022-07-01T02:19:05;16.20;99.90
31783;DHT22;18351;47.560;9.708;2022-07-01T02:21:31;16.10;99.90
31783;DHT22;18351;47.560;9.708;2022-07-01T02:23:57;16.20;99.90
31783;DHT22;18351;47.560;9.708;2022-07-01T02:26:22;16.20;99.90
31783;DHT22;18351;47.560;9.708;2022-07-01T02:28:48;16.20;99.90
31783;DHT22;18351;47.560;9.708;2022-07-01T02:31:13;16.20;99.90
31783;DHT22;18351;47.560;9.708;2022-07-01T02:33:39;16.30;99.90
31783;DHT22;18351;47.560;9.708;2022-07-01T02:36:04;16.40;99.90
31783;DHT22;18351;47.560;9.708;2022-07-01T02:38:30;16.50;99.90
31783;DHT22;18351;47.560;9.708;2022-07-01T02:40:56;16.50;99.90
31783;DHT22;18351;47.560;9.708;2022-07-01T02:43:21;16.50;99.90
31783;DHT22;18351;47.560;9.708;2022-07-01T02:45:47;16.60;99.90
31783;DHT22;18351;47.560;9.708;2022-07-01T02:48:13;16.60;99.90
31783;DHT22;18351;47.560;9.708;2022-07-01T02:50:39;16.60;99.90
31783;DHT22;18351;47.560;9.708;2022-07-01T02:53:04;16.50;99.90
31783;DHT22;18351;47.560;9.708;2022-07-01T02:55:30;16.40;99.90
31783;DHT22;18351;47.560;9.708;2022-07-01T02:57:55;16.30;99.90
31783;DHT22;18351;47.560;9.708;2022-07-01T03:00:21;16.20;99.90
31783;DHT22;18351;47.560;9.708;2022-07-01T03:02:48;16.30;99.90
31783;DHT22;18351;47.560;9.708;2022-07-01T03:05:14;16.30;99.90
31783;DHT22;18351;47.560;9.708;2022-07-01T03:07:39;16.30;99.90
31783;DHT22;18351;47.560;9.708;2022-07-01T03:10:07;16.30;99.90
31783;DHT22;18351;47.560;9.708;2022-07-01T03:12:33;16.20;99.90
31783;DHT22;18351;47.560;9.708;2022-07-01T03:15:08;16.20;99.90
31783;DHT22;18351;47.560;9.708;2022-07-01T03:17:36;16.20;99.90
31783;DHT22;18351;47.560;9.708;2022-07-01T03:20:02;16.10;99.90
31783;DHT22;18351;47.560;9.708;2022-07-01T03:22:30;16.20;99.90
31783;DHT22;18351;47.560;9.708;2022-07-01T03:24:57;16.20;99.90
31783;DHT22;18351;47.560;9.708;2022-07-01T03:27:23;16.20;99.90
31783;DHT22;18351;47.560;9.708;2022-07-01T03:29:50;16.30;99.90
31783;DHT22;18351;47.560;9.708;2022-07-01T03:32:15;16.30;99.90
31783;DHT22;18351;47.560;9.708;2022-07-01T03:34:44;16.30;99.90
31783;DHT22;18351;47.560;9.708;2022-07-01T03:37:11;16.30;99.90
31783;DHT22;18351;47.560;9.708;2022-07-01T03:39:38;16.30;99.90
31783;DHT22;18351;47.560;9.708;2022-07-01T03:42:05;16.20;99.90
31783;DHT22;18351;47.560;9.708;2022-07-01T03:44:32;16.20;99.90
31783;DHT22;18351;47.560;9.708;2022-07-01T03:46:57;16.20;99.90
31783;DHT22;18351;47.560;9.708;2022-07-01T03:49:23;16.20;99.90
31783;DHT22;18351;47.560;9.708;2022-07-01T03:51:49;16.20;99.90
31783;DHT22;18351;47.560;9.708;2022-07-01T03:54:15;16.30;99.90
31783;DHT22;18351;47.560;9.708;2022-07-01T03:59:25;16.20;99.90
31783;DHT22;18351;47.560;9.708;2022-07-01T04:01:52;16.10;99.90
31783;DHT22;18351;47.560;9.708;2022-07-01T04:04:18;16.00;99.90
31783;DHT22;18351;47.560;9.708;2022-07-01T04:06:45;16.00;99.90
31783;DHT22;18351;47.560;9.708;2022-07-01T04:09:11;15.90;99.90
31783;DHT22;18351;47.560;9.708;2022-07-01T04:11:38;15.90;99.90
31783;DHT22;18351;47.560;9.708;2022-07-01T04:14:04;15.80;99.90
31783;DHT22;18351;47.560;9.708;2022-07-01T04:16:30;15.80;99.90
31783;DHT22;18351;47.560;9.708;2022-07-01T04:18:56;15.80;99.90
31783;DHT22;18351;47.560;9.708;2022-07-01T04:21:21;15.70;99.90
31783;DHT22;18351;47.560;9.708;2022-07-01T04:24:06;15.70;99.90
31783;DHT22;18351;47.560;9.708;2022-07-01T04:26:32;15.70;99.90
31783;DHT22;18351;47.560;9.708;2022-07-01T04:28:58;15.70;99.90
31783;DHT22;18351;47.560;9.708;2022-07-01T04:31:24;15.60;99.90
31783;DHT22;18351;47.560;9.708;2022-07-01T04:33:50;15.60;99.90
31783;DHT22;18351;47.560;9.708;2022-07-01T04:36:15;15.60;99.90
31783;DHT22;18351;47.560;9.708;2022-07-01T04:38:41;15.50;99.90
31783;DHT22;18351;47.560;9.708;2022-07-01T04:41:06;15.40;99.90
31783;DHT22;18351;47.560;9.708;2022-07-01T04:43:50;15.30;99.90
31783;DHT22;18351;47.560;9.708;2022-07-01T04:46:16;15.30;99.90
31783;DHT22;18351;47.560;9.708;2022-07-01T04:48:42;15.20;99.90
31783;DHT22;18351;47.560;9.708;2022-07-01T04:51:07;15.20;99.90
31783;DHT22;18351;47.560;9.708;2022-07-01T04:53:33;15.10;99.90
31783;DHT22;18351;47.560;9.708;2022-07-01T04:55:59;15.00;99.90
31783;DHT22;18351;47.560;9.708;2022-07-01T04:58:24;14.80;99.90
31783;DHT22;18351;47.560;9.708;2022-07-01T05:00:51;14.90;99.90
31783;DHT22;18351;47.560;9.708;2022-07-01T05:03:17;14.80;99.90
31783;DHT22;18351;47.560;9.708;2022-07-01T05:05:42;14.80;99.90
31783;DHT22;18351;47.560;9.708;2022-07-01T05:08:08;14.80;99.90
31783;DHT22;18351;47.560;9.708;2022-07-01T05:10:34;15.00;99.90
31783;DHT22;18351;47.560;9.708;2022-07-01T05:12:59;14.90;99.90
31783;DHT22;18351;47.560;9.708;2022-07-01T05:15:25;15.00;99.90
31783;DHT22;18351;47.560;9.708;2022-07-01T05:17:51;15.00;99.90
31783;DHT22;18351;47.560;9.708;2022-07-01T05:20:34;15.00;99.90
31783;DHT22;18351;47.560;9.708;2022-07-01T05:23:18;15.00;99.90
31783;DHT22;18351;47.560;9.708;2022-07-01T05:25:44;15.00;99.90
31783;DHT22;18351;47.560;9.708;2022-07-01T05:28:09;15.00;99.90
31783;DHT22;18351;47.560;9.708;2022-07-01T05:30:35;15.00;99.90
31783;DHT22;18351;47.560;9.708;2022-07-01T05:33:01;15.10;99.90
31783;DHT22;18351;47.560;9.708;2022-07-01T05:35:26;15.00;99.90
31783;DHT22;18351;47.560;9.708;2022-07-01T05:37:52;15.00;99.90
31783;DHT22;18351;47.560;9.708;2022-07-01T05:40:17;15.00;99.90
31783;DHT22;18351;47.560;9.708;2022-07-01T05:42:43;14.90;99.90
31783;DHT22;18351;47.560;9.708;2022-07-01T05:45:09;14.90;99.90
31783;DHT22;18351;47.560;9.708;2022-07-01T05:47:34;14.90;99.90
31783;DHT22;18351;47.560;9.708;2022-07-01T05:50:00;14.90;99.90
31783;DHT22;18351;47.560;9.708;2022-07-01T05:52:26;14.90;99.90
31783;DHT22;18351;47.560;9.708;2022-07-01T05:54:51;14.80;99.90
31783;DHT22;18351;47.560;9.708;2022-07-01T05:57:17;14.90;99.90
31783;DHT22;18351;47.560;9.708;2022-07-01T05:59:42;15.00;99.90
31783;DHT22;18351;47.560;9.708;2022-07-01T06:02:08;15.00;99.90
31783;DHT22;18351;47.560;9.708;2022-07-01T06:04:33;15.00;99.90
31783;DHT22;18351;47.560;9.708;2022-07-01T06:06:59;15.10;99.90
31783;DHT22;18351;47.560;9.708;2022-07-01T06:09:25;14.90;99.90
31783;DHT22;18351;47.560;9.708;2022-07-01T06:11:50;15.00;99.90
31783;DHT22;18351;47.560;9.708;2022-07-01T06:14:16;15.00;99.90
31783;DHT22;18351;47.560;9.708;2022-07-01T06:16:42;15.10;99.90
31783;DHT22;18351;47.560;9.708;2022-07-01T06:19:07;15.10;99.90
31783;DHT22;18351;47.560;9.708;2022-07-01T06:21:33;15.10;99.90
31783;DHT22;18351;47.560;9.708;2022-07-01T06:23:58;15.00;99.90
31783;DHT22;18351;47.560;9.708;2022-07-01T06:26:24;14.90;99.90
31783;DHT22;18351;47.560;9.708;2022-07-01T06:28:50;15.00;99.90
31783;DHT22;18351;47.560;9.708;2022-07-01T06:31:16;14.90;99.90
31783;DHT22;18351;47.560;9.708;2022-07-01T06:33:41;15.00;99.90
31783;DHT22;18351;47.560;9.708;2022-07-01T06:36:07;15.10;99.90
31783;DHT22;18351;47.560;9.708;2022-07-01T06:38:32;15.20;99.90
31783;DHT22;18351;47.560;9.708;2022-07-01T06:40:58;15.10;99.90
31783;DHT22;18351;47.560;9.708;2022-07-01T06:43:42;15.10;99.90
31783;DHT22;18351;47.560;9.708;2022-07-01T06:46:09;15.10;99.90
31783;DHT22;18351;47.560;9.708;2022-07-01T06:48:36;15.10;99.90
31783;DHT22;18351;47.560;9.708;2022-07-01T06:51:02;15.10;99.90
31783;DHT22;18351;47.560;9.708;2022-07-01T06:53:28;15.20;99.90
31783;DHT22;18351;47.560;9.708;2022-07-01T06:55:54;15.30;99.90
31783;DHT22;18351;47.560;9.708;2022-07-01T06:58:19;15.30;99.90
31783;DHT22;18351;47.560;9.708;2022-07-01T07:00:45;15.50;99.90
31783;DHT22;18351;47.560;9.708;2022-07-01T07:03:11;15.60;99.90
31783;DHT22;18351;47.560;9.708;2022-07-01T07:05:36;15.70;99.90
31783;DHT22;18351;47.560;9.708;2022-07-01T07:08:02;15.80;99.90
31783;DHT22;18351;47.560;9.708;2022-07-01T07:10:28;15.80;99.90
31783;DHT22;18351;47.560;9.708;2022-07-01T07:12:53;15.90;99.90
31783;DHT22;18351;47.560;9.708;2022-07-01T07:15:19;15.80;99.90
31783;DHT22;18351;47.560;9.708;2022-07-01T07:17:45;15.80;99.90
31783;DHT22;18351;47.560;9.708;2022-07-01T07:20:11;15.80;99.90
31783;DHT22;18351;47.560;9.708;2022-07-01T07:22:36;16.00;99.90
31783;DHT22;18351;47.560;9.708;2022-07-01T07:25:02;16.00;99.90
31783;DHT22;18351;47.560;9.708;2022-07-01T07:27:28;15.90;99.90
31783;DHT22;18351;47.560;9.708;2022-07-01T07:29:54;16.00;99.90
31783;DHT22;18351;47.560;9.708;2022-07-01T07:32:19;16.20;99.90
31783;DHT22;18351;47.560;9.708;2022-07-01T07:34:45;16.40;99.90
31783;DHT22;18351;47.560;9.708;2022-07-01T07:37:11;16.60;99.90
31783;DHT22;18351;47.560;9.708;2022-07-01T07:39:37;16.70;99.90
31783;DHT22;18351;47.560;9.708;2022-07-01T07:42:03;16.90;99.90
31783;DHT22;18351;47.560;9.708;2022-07-01T07:44:29;17.10;99.90
31783;DHT22;18351;47.560;9.708;2022-07-01T07:46:55;17.00;99.90
31783;DHT22;18351;47.560;9.708;2022-07-01T07:49:24;17.00;99.90
31783;DHT22;18351;47.560;9.708;2022-07-01T07:51:50;16.90;99.90
31783;DHT22;18351;47.560;9.708;2022-07-01T07:54:16;16.90;99.90
31783;DHT22;18351;47.560;9.708;2022-07-01T07:56:42;16.90;99.90
31783;DHT22;18351;47.560;9.708;2022-07-01T07:59:07;17.00;99.90
31783;DHT22;18351;47.560;9.708;2022-07-01T08:01:33;17.00;99.90
31783;DHT22;18351;47.560;9.708;2022-07-01T08:03:58;17.10;99.90
31783;DHT22;18351;47.560;9.708;2022-07-01T08:06:24;17.20;99.90
31783;DHT22;18351;47.560;9.708;2022-07-01T08:08:50;17.00;99.90
31783;DHT22;18351;47.560;9.708;2022-07-01T08:11:16;17.00;99.90
31783;DHT22;18351;47.560;9.708;2022-07-01T08:13:42;16.90;99.90
31783;DHT22;18351;47.560;9.708;2022-07-01T08:16:08;16.90;99.90
31783;DHT22;18351;47.560;9.708;2022-07-01T08:18:34;16.70;99.90
31783;DHT22;18351;47.560;9.708;2022-07-01T08:20:59;16.70;99.90
31783;DHT22;18351;47.560;9.708;2022-07-01T08:23:25;16.80;99.90
31783;DHT22;18351;47.560;9.708;2022-07-01T08:25:51;16.80;99.90
31783;DHT22;18351;47.560;9.708;2022-07-01T08:28:17;16.80;99.90
31783;DHT22;18351;47.560;9.708;2022-07-01T08:30:43;16.90;99.90
31783;DHT22;18351;47.560;9.708;2022-07-01T08:33:09;17.10;99.90
31783;DHT22;18351;47.560;9.708;2022-07-01T08:35:34;16.90;99.90
31783;DHT22;18351;47.560;9.708;2022-07-01T08:38:00;16.50;99.90
31783;DHT22;18351;47.560;9.708;2022-07-01T08:40:30;16.60;99.90
31783;DHT22;18351;47.560;9.708;2022-07-01T08:42:57;16.70;99.90
31783;DHT22;18351;47.560;9.708;2022-07-01T08:45:25;16.80;99.90
31783;DHT22;18351;47.560;9.708;2022-07-01T08:47:52;16.90;99.90
31783;DHT22;18351;47.560;9.708;2022-07-01T08:50:18;16.80;99.90
31783;DHT22;18351;47.560;9.708;2022-07-01T08:52:43;16.90;99.90
31783;DHT22;18351;47.560;9.708;2022-07-01T08:55:09;17.10;99.90
31783;DHT22;18351;47.560;9.708;2022-07-01T08:57:34;17.20;99.90
31783;DHT22;18351;47.560;9.708;2022-07-01T09:00:05;17.20;99.90
31783;DHT22;18351;47.560;9.708;2022-07-01T09:03:07;17.00;99.90
31783;DHT22;18351;47.560;9.708;2022-07-01T09:05:33;16.80;99.90
31783;DHT22;18351;47.560;9.708;2022-07-01T09:08:03;17.00;99.90
31783;DHT22;18351;47.560;9.708;2022-07-01T09:10:30;17.00;99.90
31783;DHT22;18351;47.560;9.708;2022-07-01T09:13:07;17.20;99.90
31783;DHT22;18351;47.560;9.708;2022-07-01T09:15:32;17.30;99.90
31783;DHT22;18351;47.560;9.708;2022-07-01T09:18:12;17.20;99.90
31783;DHT22;18351;47.560;9.708;2022-07-01T09:20:44;17.30;99.90
31783;DHT22;18351;47.560;9.708;2022-07-01T09:23:14;17.20;99.90
31783;DHT22;18351;47.560;9.708;2022-07-01T09:25:48;17.30;99.90
31783;DHT22;18351;47.560;9.708;2022-07-01T09:28:19;17.30;99.90
31783;DHT22;18351;47.560;9.708;2022-07-01T09:30:51;17.30;99.90
31783;DHT22;18351;47.560;9.708;2022-07-01T09:35:45;17.30;99.90
31783;DHT22;18351;47.560;9.708;2022-07-01T09:38:14;17.40;99.90
31783;DHT22;18351;47.560;9.708;2022-07-01T09:40:59;17.60;99.90
31783;DHT22;18351;47.560;9.708;2022-07-01T09:43:27;17.60;99.90
31783;DHT22;18351;47.560;9.708;2022-07-01T09:45:55;17.80;99.90
31783;DHT22;18351;47.560;9.708;2022-07-01T09:48:23;17.90;99.90
31783;DHT22;18351;47.560;9.708;2022-07-01T09:50:49;17.90;99.90
31783;DHT22;18351;47.560;9.708;2022-07-01T09:53:15;17.90;99.90
31783;DHT22;18351;47.560;9.708;2022-07-01T09:55:41;17.70;99.90
31783;DHT22;18351;47.560;9.708;2022-07-01T09:58:06;17.70;99.90
31783;DHT22;18351;47.560;9.708;2022-07-01T10:00:35;17.80;99.90
31783;DHT22;18351;47.560;9.708;2022-07-01T10:03:03;17.90;99.90
31783;DHT22;18351;47.560;9.708;2022-07-01T10:05:30;17.90;99.90
31783;DHT22;18351;47.560;9.708;2022-07-01T10:08:21;18.00;99.90
31783;DHT22;18351;47.560;9.708;2022-07-01T10:13:31;17.90;99.90
31783;DHT22;18351;47.560;9.708;2022-07-01T10:15:59;17.90;99.90
31783;DHT22;18351;47.560;9.708;2022-07-01T10:18:27;17.90;99.90
31783;DHT22;18351;47.560;9.708;2022-07-01T10:20:55;17.90;99.90
31783;DHT22;18351;47.560;9.708;2022-07-01T10:23:28;18.10;99.90
31783;DHT22;18351;47.560;9.708;2022-07-01T10:25:57;17.90;99.90
31783;DHT22;18351;47.560;9.708;2022-07-01T10:31:03;17.70;99.90
31783;DHT22;18351;47.560;9.708;2022-07-01T10:36:10;17.30;99.90
31783;DHT22;18351;47.560;9.708;2022-07-01T10:44:19;16.70;99.90
31783;DHT22;18351;47.560;9.708;2022-07-01T10:46:46;16.70;99.90
31783;DHT22;18351;47.560;9.708;2022-07-01T10:52:00;16.60;99.90
31783;DHT22;18351;47.560;9.708;2022-07-01T10:57:26;16.40;99.90
31783;DHT22;18351;47.560;9.708;2022-07-01T11:02:31;16.00;99.90
31783;DHT22;18351;47.560;9.708;2022-07-01T11:07:28;15.70;99.90
31783;DHT22;18351;47.560;9.708;2022-07-01T11:09:54;15.70;99.90
31783;DHT22;18351;47.560;9.708;2022-07-01T11:12:22;15.50;99.90
31783;DHT22;18351;47.560;9.708;2022-07-01T11:14:49;15.60;99.90
31783;DHT22;18351;47.560;9.708;2022-07-01T11:17:15;15.30;99.90
31783;DHT22;18351;47.560;9.708;2022-07-01T11:19:49;15.20;99.90
31783;DHT22;18351;47.560;9.708;2022-07-01T11:22:25;15.20;99.90
31783;DHT22;18351;47.560;9.708;2022-07-01T11:24:59;15.10;99.90
31783;DHT22;18351;47.560;9.708;2022-07-01T11:27:26;15.00;99.90
31783;DHT22;18351;47.560;9.708;2022-07-01T11:29:53;14.80;99.90
31783;DHT22;18351;47.560;9.708;2022-07-01T11:34:52;14.80;99.90
31783;DHT22;18351;47.560;9.708;2022-07-01T11:37:17;14.80;99.90
31783;DHT22;18351;47.560;9.708;2022-07-01T11:40:13;15.00;99.90
31783;DHT22;18351;47.560;9.708;2022-07-01T11:42:39;15.00;99.90
31783;DHT22;18351;47.560;9.708;2022-07-01T11:45:06;15.00;99.90
31783;DHT22;18351;47.560;9.708;2022-07-01T11:47:32;15.10;99.90
31783;DHT22;18351;47.560;9.708;2022-07-01T11:49:59;15.20;99.90
31783;DHT22;18351;47.560;9.708;2022-07-01T11:52:25;15.40;99.90
31783;DHT22;18351;47.560;9.708;2022-07-01T11:54:55;15.50;99.90
31783;DHT22;18351;47.560;9.708;2022-07-01T11:57:23;15.70;99.90
31783;DHT22;18351;47.560;9.708;2022-07-01T11:59:51;15.90;99.90
31783;DHT22;18351;47.560;9.708;2022-07-01T12:02:18;16.10;99.90
31783;DHT22;18351;47.560;9.708;2022-07-01T12:04:45;16.20;99.90
31783;DHT22;18351;47.560;9.708;2022-07-01T12:07:13;16.20;99.90
31783;DHT22;18351;47.560;9.708;2022-07-01T12:09:38;16.20;99.90
31783;DHT22;18351;47.560;9.708;2022-07-01T12:12:05;16.30;99.90
31783;DHT22;18351;47.560;9.708;2022-07-01T12:14:33;16.30;99.90
31783;DHT22;18351;47.560;9.708;2022-07-01T12:17:05;16.50;99.90
31783;DHT22;18351;47.560;9.708;2022-07-01T12:19:40;16.70;99.90
31783;DHT22;18351;47.560;9.708;2022-07-01T12:22:24;16.90;99.90
31783;DHT22;18351;47.560;9.708;2022-07-01T12:24:51;17.40;99.90
31783;DHT22;18351;47.560;9.708;2022-07-01T12:27:20;17.70;99.90
31783;DHT22;18351;47.560;9.708;2022-07-01T12:34:48;18.50;99.90
31783;DHT22;18351;47.560;9.708;2022-07-01T12:40:05;18.70;99.90
31783;DHT22;18351;47.560;9.708;2022-07-01T12:44:58;18.60;99.90
31783;DHT22;18351;47.560;9.708;2022-07-01T12:52:55;18.60;99.90
31783;DHT22;18351;47.560;9.708;2022-07-01T12:55:21;18.70;99.90
31783;DHT22;18351;47.560;9.708;2022-07-01T12:57:48;18.50;99.90
31783;DHT22;18351;47.560;9.708;2022-07-01T13:00:16;18.60;99.90
31783;DHT22;18351;47.560;9.708;2022-07-01T13:02:42;18.60;99.90
31783;DHT22;18351;47.560;9.708;2022-07-01T13:05:08;18.70;99.90
31783;DHT22;18351;47.560;9.708;2022-07-01T13:07:34;18.90;99.90
31783;DHT22;18351;47.560;9.708;2022-07-01T13:10:00;18.60;99.90
31783;DHT22;18351;47.560;9.708;2022-07-01T13:12:26;18.90;99.90
31783;DHT22;18351;47.560;9.708;2022-07-01T13:14:51;19.20;99.90
31783;DHT22;18351;47.560;9.708;2022-07-01T13:17:17;19.20;99.90
31783;DHT22;18351;47.560;9.708;2022-07-01T13:19:42;19.50;99.90
31783;DHT22;18351;47.560;9.708;2022-07-01T13:22:08;19.90;99.90
31783;DHT22;18351;47.560;9.708;2022-07-01T13:24:33;20.00;99.90
31783;DHT22;18351;47.560;9.708;2022-07-01T13:26:59;20.00;99.90
31783;DHT22;18351;47.560;9.708;2022-07-01T13:29:25;19.90;99.90
31783;DHT22;18351;47.560;9.708;2022-07-01T13:31:50;20.00;99.90
31783;DHT22;18351;47.560;9.708;2022-07-01T13:34:16;20.10;99.90
31783;DHT22;18351;47.560;9.708;2022-07-01T13:36:41;20.10;99.90
31783;DHT22;18351;47.560;9.708;2022-07-01T13:39:07;20.20;99.90
31783;DHT22;18351;47.560;9.708;2022-07-01T13:41:34;20.40;99.90
31783;DHT22;18351;47.560;9.708;2022-07-01T13:44:00;20.60;99.90
31783;DHT22;18351;47.560;9.708;2022-07-01T13:46:26;20.80;99.90
31783;DHT22;18351;47.560;9.708;2022-07-01T13:48:51;20.90;99.90
31783;DHT22;18351;47.560;9.708;2022-07-01T13:51:17;20.90;99.90
31783;DHT22;18351;47.560;9.708;2022-07-01T13:53:42;20.90;99.90
31783;DHT22;18351;47.560;9.708;2022-07-01T13:56:08;21.10;99.90
31783;DHT22;18351;47.560;9.708;2022-07-01T13:58:34;21.10;99.90
31783;DHT22;18351;47.560;9.708;2022-07-01T14:00:59;21.10;99.90
31783;DHT22;18351;47.560;9.708;2022-07-01T14:03:25;21.00;99.90
31783;DHT22;18351;47.560;9.708;2022-07-01T14:05:50;21.10;99.90
31783;DHT22;18351;47.560;9.708;2022-07-01T14:08:17;21.30;99.90
31783;DHT22;18351;47.560;9.708;2022-07-01T14:10:43;21.50;99.90
31783;DHT22;18351;47.560;9.708;2022-07-01T14:13:10;21.70;99.90
31783;DHT22;18351;47.560;9.708;2022-07-01T14:15:35;21.80;99.90
31783;DHT22;18351;47.560;9.708;2022-07-01T14:18:02;22.00;99.90
31783;DHT22;18351;47.560;9.708;2022-07-01T14:20:28;21.90;99.90
31783;DHT22;18351;47.560;9.708;2022-07-01T14:22:53;21.90;99.90
31783;DHT22;18351;47.560;9.708;2022-07-01T14:25:20;21.90;99.90
31783;DHT22;18351;47.560;9.708;2022-07-01T14:27:46;21.70;99.90
31783;DHT22;18351;47.560;9.708;2022-07-01T14:30:12;21.60;99.90
31783;DHT22;18351;47.560;9.708;2022-07-01T14:32:38;21.70;99.90
31783;DHT22;18351;47.560;9.708;2022-07-01T14:35:05;21.80;99.90
31783;DHT22;18351;47.560;9.708;2022-07-01T14:37:30;21.80;99.90
31783;DHT22;18351;47.560;9.708;2022-07-01T14:39:56;21.60;99.90
31783;DHT22;18351;47.560;9.708;2022-07-01T14:42:26;21.50;99.90
31783;DHT22;18351;47.560;9.708;2022-07-01T14:44:54;21.60;99.90
31783;DHT22;18351;47.560;9.708;2022-07-01T14:47:20;21.70;99.90
31783;DHT22;18351;47.560;9.708;2022-07-01T14:49:46;21.80;99.90
31783;DHT22;18351;47.560;9.708;2022-07-01T14:52:11;21.70;99.90
31783;DHT22;18351;47.560;9.708;2022-07-01T14:54:38;21.80;99.90
31783;DHT22;18351;47.560;9.708;2022-07-01T14:57:05;21.90;99.90
31783;DHT22;18351;47.560;9.708;2022-07-01T14:59:31;21.60;99.50
31783;DHT22;18351;47.560;9.708;2022-07-01T15:01:56;21.60;99.90
31783;DHT22;18351;47.560;9.708;2022-07-01T15:04:26;21.20;99.90
31783;DHT22;18351;47.560;9.708;2022-07-01T15:06:52;21.20;99.90
31783;DHT22;18351;47.560;9.708;2022-07-01T15:09:18;20.90;99.90
31783;DHT22;18351;47.560;9.708;2022-07-01T15:11:50;21.00;99.90
31783;DHT22;18351;47.560;9.708;2022-07-01T15:14:16;21.10;99.90
31783;DHT22;18351;47.560;9.708;2022-07-01T15:16:41;21.00;99.90
31783;DHT22;18351;47.560;9.708;2022-07-01T15:19:07;21.20;99.90
31783;DHT22;18351;47.560;9.708;2022-07-01T15:21:33;21.40;99.90
31783;DHT22;18351;47.560;9.708;2022-07-01T15:23:58;21.70;99.90
31783;DHT22;18351;47.560;9.708;2022-07-01T15:26:24;22.00;99.90
31783;DHT22;18351;47.560;9.708;2022-07-01T15:28:50;22.00;99.90
31783;DHT22;18351;47.560;9.708;2022-07-01T15:31:16;21.90;95.80
31783;DHT22;18351;47.560;9.708;2022-07-01T15:33:43;21.80;97.10
31783;DHT22;18351;47.560;9.708;2022-07-01T15:36:09;21.90;99.20
31783;DHT22;18351;47.560;9.708;2022-07-01T15:38:36;21.90;98.90
31783;DHT22;18351;47.560;9.708;2022-07-01T15:41:02;22.00;97.40
31783;DHT22;18351;47.560;9.708;2022-07-01T15:43:28;22.00;97.60
31783;DHT22;18351;47.560;9.708;2022-07-01T15:45:56;22.00;97.40
31783;DHT22;18351;47.560;9.708;2022-07-01T15:48:22;21.80;97.60
31783;DHT22;18351;47.560;9.708;2022-07-01T15:50:47;21.80;98.90
31783;DHT22;18351;47.560;9.708;2022-07-01T15:53:17;21.90;99.30
31783;DHT22;18351;47.560;9.708;2022-07-01T15:55:43;22.00;98.90
31783;DHT22;18351;47.560;9.708;2022-07-01T15:58:13;22.00;99.20
31783;DHT22;18351;47.560;9.708;2022-07-01T16:00:47;22.00;98.80
31783;DHT22;18351;47.560;9.708;2022-07-01T16:03:14;22.00;98.10
31783;DHT22;18351;47.560;9.708;2022-07-01T16:05:44;22.10;98.20
31783;DHT22;18351;47.560;9.708;2022-07-01T16:08:12;22.20;99.90
31783;DHT22;18351;47.560;9.708;2022-07-01T16:10:44;22.30;99.60
31783;DHT22;18351;47.560;9.708;2022-07-01T16:13:12;22.30;97.90
31783;DHT22;18351;47.560;9.708;2022-07-01T16:15:39;22.10;98.20